createdAt,value
2022-10-26T00:00:10.491Z,12.55
2022-10-26T00:00:32.590Z,12.50
2022-10-26T00:01:23.276Z,12.07
2022-10-26T00:01:45.287Z,12.00
2022-10-26T00:02:08.972Z,11.70
2022-10-26T00:02:31.358Z,11.75
2022-10-26T00:02:55.152Z,12.25
2022-10-26T00:03:18.340Z,12.43
2022-10-26T00:03:41.944Z,12.15
2022-10-26T00:04:03.779Z,12.43
2022-10-26T00:04:25.465Z,12.73
2022-10-26T00:04:47.176Z,12.70
2022-10-26T00:05:09.403Z,12.27
2022-10-26T00:05:34.149Z,12.55
2022-10-26T00:05:55.905Z,12.65
2022-10-26T00:06:20.367Z,12.10
2022-10-26T00:06:42.135Z,12.50
2022-10-26T00:07:03.910Z,12.15
2022-10-26T00:07:25.727Z,12.00
2022-10-26T00:07:47.839Z,12.10
2022-10-26T00:08:10.389Z,12.10
2022-10-26T00:08:32.511Z,12.07
2022-10-26T00:08:55.572Z,11.82
2022-10-26T00:09:17.443Z,12.05
2022-10-26T00:09:39.519Z,12.48
2022-10-26T00:10:01.279Z,11.75
2022-10-26T00:10:24.214Z,11.65
2022-10-26T00:10:46.516Z,12.07
2022-10-26T00:11:12.412Z,12.25
2022-10-26T00:11:34.504Z,11.90
2022-10-26T00:11:56.341Z,12.02
2022-10-26T00:12:18.124Z,12.20
2022-10-26T00:12:40.228Z,12.13
2022-10-26T00:13:02.270Z,11.77
2022-10-26T00:13:24.068Z,11.88
2022-10-26T00:13:48.821Z,12.60
2022-10-26T00:14:10.945Z,11.65
2022-10-26T00:14:32.822Z,11.90
2022-10-26T00:14:54.601Z,12.02
2022-10-26T00:15:17.246Z,11.73
2022-10-26T00:15:42.882Z,11.88
2022-10-26T00:16:17.273Z,12.23
2022-10-26T00:16:39.008Z,12.13
2022-10-26T00:17:01.245Z,12.07
2022-10-26T00:17:22.990Z,12.10
2022-10-26T00:17:45.003Z,12.37
2022-10-26T00:18:06.774Z,11.95
2022-10-26T00:18:29.000Z,11.68
2022-10-26T00:18:51.035Z,11.90
2022-10-26T00:19:12.751Z,12.32
2022-10-26T00:19:35.470Z,12.23
2022-10-26T00:19:58.061Z,12.88
2022-10-26T00:20:19.775Z,12.63
2022-10-26T00:20:42.448Z,12.07
2022-10-26T00:21:06.028Z,11.75
2022-10-26T00:21:27.761Z,12.30
2022-10-26T00:21:49.591Z,12.07
2022-10-26T00:22:11.301Z,12.45
2022-10-26T00:22:33.402Z,12.30
2022-10-26T00:22:55.157Z,12.55
2022-10-26T00:23:17.444Z,12.60
2022-10-26T00:23:39.480Z,11.85
2022-10-26T00:24:01.253Z,11.25
2022-10-26T00:24:23.459Z,12.25
2022-10-26T00:24:45.441Z,11.90
2022-10-26T00:25:07.475Z,12.00
2022-10-26T00:25:29.291Z,11.77
2022-10-26T00:25:55.439Z,12.05
2022-10-26T00:26:17.298Z,12.30
2022-10-26T00:26:39.732Z,12.43
2022-10-26T00:27:01.837Z,12.50
2022-10-26T00:27:23.643Z,12.10
2022-10-26T00:27:45.842Z,12.00
2022-10-26T00:28:08.028Z,12.00
2022-10-26T00:28:31.322Z,12.05
2022-10-26T00:28:54.667Z,12.65
2022-10-26T00:29:18.440Z,12.75
2022-10-26T00:29:40.556Z,12.43
2022-10-26T00:30:03.408Z,12.52
2022-10-26T00:30:25.313Z,12.02
2022-10-26T00:30:47.478Z,11.98
2022-10-26T00:31:12.915Z,11.70
2022-10-26T00:31:35.054Z,12.45
2022-10-26T00:31:56.771Z,12.70
2022-10-26T00:32:18.514Z,12.55
2022-10-26T00:33:02.388Z,12.32
2022-10-26T00:33:24.106Z,11.70
2022-10-26T00:33:46.262Z,11.85
2022-10-26T00:34:10.107Z,11.73
2022-10-26T00:34:32.626Z,11.75
2022-10-26T00:34:54.452Z,11.85
2022-10-26T00:35:23.262Z,11.70
2022-10-26T00:35:54.401Z,11.77
2022-10-26T00:36:17.113Z,11.35
2022-10-26T00:36:38.852Z,11.77
2022-10-26T00:37:00.574Z,12.07
2022-10-26T00:37:22.382Z,11.35
2022-10-26T00:37:44.617Z,11.75
2022-10-26T00:38:06.407Z,11.52
2022-10-26T00:38:28.707Z,12.15
2022-10-26T00:38:55.380Z,11.98
2022-10-26T00:39:17.488Z,10.90
2022-10-26T00:39:39.266Z,10.52
2022-10-26T00:40:01.123Z,11.57
2022-10-26T00:40:23.580Z,11.77
2022-10-26T00:40:45.399Z,11.43
2022-10-26T00:41:07.218Z,11.60
2022-10-26T00:41:31.532Z,11.20
2022-10-26T00:41:53.688Z,11.55
2022-10-26T00:42:21.135Z,12.40
2022-10-26T00:42:42.883Z,11.38
2022-10-26T00:43:06.233Z,11.35
2022-10-26T00:43:27.992Z,11.52
2022-10-26T00:43:50.065Z,11.02
2022-10-26T00:44:48.139Z,11.30
2022-10-26T00:45:22.627Z,11.15
2022-10-26T00:45:45.621Z,10.57
2022-10-26T00:46:12.660Z,11.18
2022-10-26T00:46:36.588Z,10.13
2022-10-26T00:46:58.913Z,10.45
2022-10-26T00:47:21.096Z,10.98
2022-10-26T00:48:13.394Z,10.77
2022-10-26T00:48:39.114Z,10.35
2022-10-26T00:49:41.934Z,10.90
2022-10-26T00:50:22.485Z,10.73
2022-10-26T00:50:47.146Z,11.23
2022-10-26T00:51:33.742Z,10.93
2022-10-26T00:51:55.486Z,10.70
2022-10-26T00:52:18.706Z,10.40
2022-10-26T00:52:41.038Z,10.40
2022-10-26T00:53:05.602Z,10.50
2022-10-26T00:53:27.817Z,10.20
2022-10-26T00:53:50.535Z,11.23
2022-10-26T00:54:20.184Z,11.00
2022-10-26T00:54:42.091Z,10.82
2022-10-26T00:55:05.782Z,11.02
2022-10-26T00:55:32.519Z,11.02
2022-10-26T00:55:55.164Z,11.10
2022-10-26T00:56:18.133Z,10.70
2022-10-26T00:56:40.955Z,10.52
2022-10-26T00:57:02.845Z,10.82
2022-10-26T00:57:25.609Z,10.93
2022-10-26T00:57:49.513Z,11.05
2022-10-26T00:58:11.949Z,11.35
2022-10-26T00:58:35.630Z,11.15
2022-10-26T00:59:05.818Z,11.05
2022-10-26T00:59:27.627Z,11.45
2022-10-26T00:59:51.287Z,11.82
2022-10-26T01:00:13.578Z,11.25
2022-10-26T01:00:35.700Z,11.93
2022-10-26T01:00:57.456Z,11.55
2022-10-26T01:01:20.239Z,11.63
2022-10-26T01:01:44.502Z,11.35
2022-10-26T01:02:06.620Z,11.43
2022-10-26T01:02:28.596Z,11.40
2022-10-26T01:02:52.642Z,11.65
2022-10-26T01:03:15.632Z,11.55
2022-10-26T01:03:39.148Z,11.82
2022-10-26T01:04:01.718Z,11.40
2022-10-26T01:04:23.943Z,11.63
2022-10-26T01:04:47.210Z,11.77
2022-10-26T01:05:09.605Z,11.85
2022-10-26T01:05:32.906Z,11.93
2022-10-26T01:05:58.887Z,11.30
2022-10-26T01:06:21.639Z,11.90
2022-10-26T01:06:44.784Z,11.32
2022-10-26T01:07:07.413Z,11.90
2022-10-26T01:07:29.242Z,11.60
2022-10-26T01:07:52.115Z,11.55
2022-10-26T01:08:15.921Z,11.88
2022-10-26T01:08:38.222Z,12.52
2022-10-26T01:09:00.477Z,12.30
2022-10-26T01:09:22.868Z,12.13
2022-10-26T01:09:45.071Z,11.90
2022-10-26T01:10:07.515Z,11.77
2022-10-26T01:10:29.412Z,11.63
2022-10-26T01:10:51.777Z,11.63
2022-10-26T01:11:13.733Z,11.50
2022-10-26T01:11:35.482Z,11.80
2022-10-26T01:11:57.271Z,11.35
2022-10-26T01:12:18.989Z,11.18
2022-10-26T01:12:41.518Z,11.27
2022-10-26T01:13:03.766Z,12.10
2022-10-26T01:13:28.475Z,11.95
2022-10-26T01:13:53.226Z,11.25
2022-10-26T01:14:17.177Z,10.90
2022-10-26T01:14:39.571Z,11.30
2022-10-26T01:15:01.859Z,11.63
2022-10-26T01:15:37.361Z,11.25
2022-10-26T01:16:20.427Z,11.32
2022-10-26T01:16:45.638Z,11.23
2022-10-26T01:17:28.806Z,11.00
2022-10-26T01:17:51.232Z,11.05
2022-10-26T01:18:35.591Z,11.60
2022-10-26T01:19:00.737Z,10.60
2022-10-26T01:19:25.778Z,10.80
2022-10-26T01:20:08.561Z,11.13
2022-10-26T01:20:45.946Z,10.55
2022-10-26T01:21:08.088Z,11.10
2022-10-26T01:21:41.555Z,11.15
2022-10-26T01:22:09.321Z,10.43
2022-10-26T01:22:48.788Z,11.13
2022-10-26T01:23:13.268Z,10.88
2022-10-26T01:23:42.781Z,11.10
2022-10-26T01:24:10.419Z,10.55
2022-10-26T01:24:35.486Z,10.40
2022-10-26T01:25:12.855Z,10.23
2022-10-26T01:26:01.016Z,10.07
2022-10-26T01:26:29.147Z,11.05
2022-10-26T01:27:01.630Z,10.23
2022-10-26T01:27:45.816Z,10.45
2022-10-26T01:28:41.358Z,11.25
2022-10-26T01:29:15.198Z,10.18
2022-10-26T01:29:43.475Z,10.13
2022-10-26T01:30:25.243Z,11.27
2022-10-26T01:30:48.922Z,11.55
2022-10-26T01:31:12.667Z,11.20
2022-10-26T01:31:58.116Z,11.05
2022-10-26T01:32:57.492Z,11.15
2022-10-26T01:33:50.110Z,11.23
2022-10-26T01:34:19.740Z,11.65
2022-10-26T01:35:00.367Z,11.05
2022-10-26T01:35:43.588Z,11.45
2022-10-26T01:36:28.847Z,11.25
2022-10-26T01:36:58.519Z,11.43
2022-10-26T01:37:28.393Z,10.35
2022-10-26T01:37:55.611Z,11.02
2022-10-26T01:38:54.929Z,10.88
2022-10-26T01:39:24.283Z,10.07
2022-10-26T01:39:50.720Z,10.48
2022-10-26T01:40:20.430Z,10.43
2022-10-26T01:41:05.103Z,10.43
2022-10-26T01:41:27.414Z,10.98
2022-10-26T01:41:52.625Z,10.80
2022-10-26T01:42:16.685Z,11.00
2022-10-26T01:42:43.001Z,10.73
2022-10-26T01:43:06.992Z,10.68
2022-10-26T01:43:35.197Z,10.43
2022-10-26T01:44:03.333Z,10.43
2022-10-26T01:44:25.485Z,10.30
2022-10-26T01:44:50.313Z,10.55
2022-10-26T01:45:14.022Z,9.65
2022-10-26T01:45:38.302Z,9.90
2022-10-26T01:46:01.954Z,10.00
2022-10-26T01:46:26.080Z,10.02
2022-10-26T01:46:50.642Z,10.48
2022-10-26T01:47:15.765Z,10.57
2022-10-26T01:47:38.886Z,10.05
2022-10-26T01:48:02.818Z,10.70
2022-10-26T01:48:25.843Z,10.38
2022-10-26T01:48:49.440Z,10.25
2022-10-26T01:49:13.452Z,10.10
2022-10-26T01:49:39.304Z,9.85
2022-10-26T01:50:02.821Z,10.23
2022-10-26T01:50:25.900Z,10.10
2022-10-26T01:50:50.291Z,9.45
2022-10-26T01:51:14.080Z,9.80
2022-10-26T01:51:36.206Z,9.63
2022-10-26T01:51:57.950Z,9.63
2022-10-26T01:52:20.329Z,10.02
2022-10-26T01:52:42.432Z,9.70
2022-10-26T01:53:04.563Z,9.85
2022-10-26T01:53:28.817Z,9.40
2022-10-26T01:53:50.999Z,9.70
2022-10-26T01:54:13.116Z,10.05
2022-10-26T01:54:38.853Z,9.15
2022-10-26T01:55:38.886Z,9.50
2022-10-26T01:56:01.828Z,9.32
2022-10-26T01:56:30.349Z,9.68
2022-10-26T01:56:55.959Z,9.23
2022-10-26T01:57:20.053Z,9.73
2022-10-26T01:57:42.147Z,9.43
2022-10-26T01:58:22.636Z,9.10
2022-10-26T01:59:13.626Z,9.02
2022-10-26T01:59:35.753Z,9.13
2022-10-26T02:00:08.079Z,9.23
2022-10-26T02:00:33.017Z,9.43
2022-10-26T02:01:09.569Z,9.43
2022-10-26T02:01:44.365Z,8.98
2022-10-26T02:02:12.287Z,8.57
2022-10-26T02:02:53.106Z,9.75
2022-10-26T02:03:15.252Z,8.48
2022-10-26T02:03:43.223Z,8.93
2022-10-26T02:04:19.358Z,9.00
2022-10-26T02:05:03.765Z,9.10
2022-10-26T02:05:35.116Z,9.48
2022-10-26T02:06:34.130Z,9.05
2022-10-26T02:07:06.440Z,9.38
2022-10-26T02:07:40.792Z,9.07
2022-10-26T02:08:08.676Z,9.05
2022-10-26T02:08:33.627Z,9.73
2022-10-26T02:08:58.728Z,9.60
2022-10-26T02:09:26.932Z,8.88
2022-10-26T02:09:51.790Z,9.57
2022-10-26T02:10:22.930Z,9.52
2022-10-26T02:11:15.364Z,8.93
2022-10-26T02:11:46.661Z,9.32
2022-10-26T02:12:15.834Z,8.98
2022-10-26T02:12:37.906Z,9.30
2022-10-26T02:13:05.836Z,9.20
2022-10-26T02:13:53.571Z,9.02
2022-10-26T02:14:43.925Z,8.85
2022-10-26T02:15:25.675Z,9.50
2022-10-26T02:15:53.076Z,8.63
2022-10-26T02:16:17.658Z,8.07
2022-10-26T02:16:56.565Z,8.25
2022-10-26T02:17:38.458Z,9.00
2022-10-26T02:18:04.905Z,9.32
2022-10-26T02:18:30.099Z,8.82
2022-10-26T02:19:10.548Z,9.02
2022-10-26T02:19:44.207Z,8.70
2022-10-26T02:20:08.322Z,8.55
2022-10-26T02:20:36.293Z,8.20
2022-10-26T02:21:27.914Z,9.05
2022-10-26T02:22:00.335Z,8.25
2022-10-26T02:22:37.467Z,8.57
2022-10-26T02:23:04.076Z,8.75
2022-10-26T02:23:27.520Z,8.38
2022-10-26T02:23:49.890Z,8.05
2022-10-26T02:24:13.853Z,8.52
2022-10-26T02:24:36.687Z,8.85
2022-10-26T02:25:01.308Z,8.80
2022-10-26T02:25:26.633Z,9.05
2022-10-26T02:25:54.193Z,8.55
2022-10-26T02:26:21.379Z,8.20
2022-10-26T02:26:47.577Z,8.40
2022-10-26T02:27:12.916Z,8.70
2022-10-26T02:27:41.077Z,9.13
2022-10-26T02:28:15.519Z,8.43
2022-10-26T02:28:42.504Z,9.10
2022-10-26T02:29:09.029Z,8.97
2022-10-26T02:29:33.222Z,8.13
2022-10-26T02:29:56.626Z,8.20
2022-10-26T02:30:19.012Z,8.18
2022-10-26T02:30:42.843Z,8.27
2022-10-26T02:31:06.472Z,8.10
2022-10-26T02:31:29.201Z,8.27
2022-10-26T02:31:52.683Z,8.88
2022-10-26T02:32:15.805Z,8.35
2022-10-26T02:32:41.443Z,8.30
2022-10-26T02:33:05.604Z,8.32
2022-10-26T02:33:28.728Z,8.38
2022-10-26T02:33:51.908Z,8.57
2022-10-26T02:34:15.195Z,8.30
2022-10-26T02:34:38.919Z,7.47
2022-10-26T02:35:02.768Z,8.32
2022-10-26T02:35:31.983Z,7.97
2022-10-26T02:35:55.327Z,8.40
2022-10-26T02:36:26.943Z,8.43
2022-10-26T02:36:50.816Z,7.78
2022-10-26T02:37:15.261Z,7.63
2022-10-26T02:37:38.688Z,8.30
2022-10-26T02:38:04.507Z,8.15
2022-10-26T02:38:28.918Z,7.63
2022-10-26T02:38:52.180Z,7.72
2022-10-26T02:39:16.694Z,8.07
2022-10-26T02:39:40.701Z,8.50
2022-10-26T02:40:06.571Z,8.13
2022-10-26T02:40:29.540Z,8.43
2022-10-26T02:40:52.353Z,8.30
2022-10-26T02:41:15.874Z,8.18
2022-10-26T02:41:40.428Z,8.07
2022-10-26T02:42:05.445Z,8.20
2022-10-26T02:42:28.152Z,8.15
2022-10-26T02:42:51.308Z,7.70
2022-10-26T02:43:15.479Z,8.18
2022-10-26T02:43:42.426Z,8.00
2022-10-26T02:44:24.059Z,7.97
2022-10-26T02:44:51.244Z,8.00
2022-10-26T02:45:24.249Z,7.97
2022-10-26T02:45:51.073Z,8.45
2022-10-26T02:46:17.005Z,8.23
2022-10-26T02:46:39.504Z,8.35
2022-10-26T02:47:01.807Z,8.38
2022-10-26T02:47:26.183Z,8.30
2022-10-26T02:47:48.359Z,8.27
2022-10-26T02:48:10.801Z,8.50
2022-10-26T02:48:33.134Z,8.75
2022-10-26T02:48:55.900Z,8.10
2022-10-26T02:49:18.952Z,8.35
2022-10-26T02:49:41.253Z,8.63
2022-10-26T02:50:03.489Z,8.23
2022-10-26T02:50:36.106Z,8.30
2022-10-26T02:51:18.291Z,8.15
2022-10-26T02:51:43.657Z,8.85
2022-10-26T02:52:12.454Z,8.27
2022-10-26T02:52:34.534Z,8.55
2022-10-26T02:53:17.662Z,8.48
2022-10-26T02:53:42.618Z,8.50
2022-10-26T02:54:04.684Z,8.38
2022-10-26T02:54:45.541Z,8.10
2022-10-26T02:55:21.429Z,8.65
2022-10-26T02:55:47.444Z,8.88
2022-10-26T02:56:16.419Z,9.30
2022-10-26T02:56:45.400Z,8.38
2022-10-26T02:57:16.708Z,8.90
2022-10-26T02:57:39.975Z,8.82
2022-10-26T02:58:06.826Z,9.02
2022-10-26T02:58:33.438Z,9.10
2022-10-26T02:58:59.739Z,8.73
2022-10-26T02:59:25.448Z,9.23
2022-10-26T02:59:48.370Z,9.77
2022-10-26T03:00:12.404Z,9.88
2022-10-26T03:00:34.322Z,10.25
2022-10-26T03:00:56.750Z,10.00
2022-10-26T03:01:18.812Z,9.32
2022-10-26T03:01:41.492Z,9.10
2022-10-26T03:02:04.878Z,9.18
2022-10-26T03:02:27.395Z,9.20
2022-10-26T03:02:57.416Z,9.43
2022-10-26T03:03:20.037Z,9.48
2022-10-26T03:03:42.214Z,9.80
2022-10-26T03:04:05.657Z,9.43
2022-10-26T03:04:35.481Z,9.48
2022-10-26T03:04:58.170Z,9.40
2022-10-26T03:05:28.835Z,9.50
2022-10-26T03:05:50.996Z,9.73
2022-10-26T03:06:13.164Z,9.73
2022-10-26T03:06:35.282Z,9.65
2022-10-26T03:06:57.470Z,9.85
2022-10-26T03:07:23.950Z,9.73
2022-10-26T03:07:46.172Z,9.60
2022-10-26T03:08:08.366Z,9.50
2022-10-26T03:08:30.714Z,10.25
2022-10-26T03:08:52.974Z,9.73
2022-10-26T03:09:14.742Z,9.35
2022-10-26T03:09:36.478Z,9.90
2022-10-26T03:09:58.177Z,9.98
2022-10-26T03:10:20.373Z,9.40
2022-10-26T03:10:46.210Z,9.57
2022-10-26T03:11:07.965Z,10.25
2022-10-26T03:11:29.672Z,9.73
2022-10-26T03:11:51.439Z,9.50
2022-10-26T03:12:13.162Z,9.88
2022-10-26T03:12:34.905Z,9.70
2022-10-26T03:12:56.619Z,9.68
2022-10-26T03:13:18.311Z,9.50
2022-10-26T03:13:40.109Z,9.82
2022-10-26T03:14:01.836Z,9.90
2022-10-26T03:14:23.623Z,9.65
2022-10-26T03:14:45.490Z,9.70
2022-10-26T03:15:07.690Z,9.57
2022-10-26T03:15:29.426Z,9.52
2022-10-26T03:15:51.539Z,9.05
2022-10-26T03:16:13.267Z,9.40
2022-10-26T03:16:34.971Z,10.02
2022-10-26T03:16:56.743Z,10.25
2022-10-26T03:17:18.469Z,10.00
2022-10-26T03:17:40.382Z,10.15
2022-10-26T03:18:02.411Z,9.93
2022-10-26T03:18:24.520Z,9.52
2022-10-26T03:18:46.283Z,9.90
2022-10-26T03:19:08.572Z,10.07
2022-10-26T03:19:30.716Z,9.90
2022-10-26T03:19:52.448Z,10.07
2022-10-26T03:20:14.219Z,10.23
2022-10-26T03:20:35.955Z,9.68
2022-10-26T03:20:58.093Z,9.20
2022-10-26T03:21:19.828Z,9.98
2022-10-26T03:21:42.377Z,10.00
2022-10-26T03:22:04.525Z,9.70
2022-10-26T03:22:26.251Z,9.80
2022-10-26T03:22:48.653Z,10.27
2022-10-26T03:23:10.846Z,10.02
2022-10-26T03:23:33.045Z,10.02
2022-10-26T03:23:55.080Z,9.32
2022-10-26T03:24:17.192Z,9.60
2022-10-26T03:24:38.889Z,10.35
2022-10-26T03:25:00.735Z,9.88
2022-10-26T03:25:23.029Z,9.93
2022-10-26T03:25:45.119Z,9.95
2022-10-26T03:26:07.217Z,9.30
2022-10-26T03:26:29.008Z,9.13
2022-10-26T03:26:50.755Z,9.48
2022-10-26T03:27:12.572Z,9.20
2022-10-26T03:27:35.219Z,9.82
2022-10-26T03:27:58.965Z,9.80
2022-10-26T03:28:20.678Z,9.65
2022-10-26T03:28:42.396Z,9.02
2022-10-26T03:29:04.507Z,9.30
2022-10-26T03:29:26.642Z,9.30
2022-10-26T03:29:48.455Z,9.40
2022-10-26T03:30:10.941Z,9.02
2022-10-26T03:30:33.143Z,9.15
2022-10-26T03:30:54.852Z,9.73
2022-10-26T03:31:16.708Z,9.65
2022-10-26T03:31:38.475Z,9.10
2022-10-26T03:32:00.622Z,9.05
2022-10-26T03:32:22.342Z,9.23
2022-10-26T03:32:44.069Z,9.02
2022-10-26T03:33:06.082Z,9.50
2022-10-26T03:33:28.050Z,9.32
2022-10-26T03:33:50.290Z,9.45
2022-10-26T03:34:12.549Z,9.60
2022-10-26T03:34:34.263Z,9.82
2022-10-26T03:34:56.047Z,9.48
2022-10-26T03:35:18.271Z,9.82
2022-10-26T03:35:40.413Z,9.60
2022-10-26T03:36:02.510Z,9.15
2022-10-26T03:36:24.215Z,9.27
2022-10-26T03:36:45.924Z,9.32
2022-10-26T03:37:07.654Z,9.55
2022-10-26T03:37:29.367Z,9.95
2022-10-26T03:37:51.522Z,9.60
2022-10-26T03:38:15.946Z,9.35
2022-10-26T03:38:37.946Z,9.60
2022-10-26T03:38:59.730Z,9.65
2022-10-26T03:39:21.471Z,9.30
2022-10-26T03:39:43.168Z,9.32
2022-10-26T03:40:05.246Z,9.88
2022-10-26T03:40:27.021Z,9.38
2022-10-26T03:40:49.114Z,9.80
2022-10-26T03:41:11.205Z,9.70
2022-10-26T03:41:33.323Z,9.70
2022-10-26T03:41:55.967Z,9.73
2022-10-26T03:42:17.711Z,10.23
2022-10-26T03:42:40.174Z,9.45
2022-10-26T03:43:02.658Z,9.05
2022-10-26T03:43:24.786Z,9.93
2022-10-26T03:43:46.548Z,9.98
2022-10-26T03:44:08.342Z,10.02
2022-10-26T03:44:30.096Z,9.85
2022-10-26T03:44:51.903Z,9.93
2022-10-26T03:45:14.088Z,10.27
2022-10-26T03:45:35.859Z,9.77
2022-10-26T03:45:57.576Z,9.85
2022-10-26T03:46:19.297Z,9.70
2022-10-26T03:46:41.006Z,9.48
2022-10-26T03:47:03.122Z,9.93
2022-10-26T03:47:25.223Z,10.02
2022-10-26T03:47:48.013Z,10.43
2022-10-26T03:48:09.815Z,9.93
2022-10-26T03:48:31.539Z,10.20
2022-10-26T03:48:53.282Z,10.30
2022-10-26T03:49:15.370Z,9.77
2022-10-26T03:49:37.473Z,10.02
2022-10-26T03:49:59.704Z,10.00
2022-10-26T03:50:22.674Z,10.25
2022-10-26T03:50:44.371Z,10.30
2022-10-26T03:51:06.575Z,9.68
2022-10-26T03:51:28.366Z,9.88
2022-10-26T03:51:50.465Z,10.73
2022-10-26T03:52:12.565Z,10.82
2022-10-26T03:52:34.327Z,9.95
2022-10-26T03:52:56.062Z,10.32
2022-10-26T03:53:17.778Z,10.60
2022-10-26T03:53:39.877Z,11.00
2022-10-26T03:54:01.561Z,10.60
2022-10-26T03:54:23.333Z,10.50
2022-10-26T03:54:45.502Z,10.95
2022-10-26T03:55:08.023Z,10.93
2022-10-26T03:55:29.771Z,10.63
2022-10-26T03:55:51.473Z,10.02
2022-10-26T03:56:13.196Z,10.40
2022-10-26T03:56:34.960Z,10.68
2022-10-26T03:56:56.744Z,10.45
2022-10-26T03:57:19.072Z,10.23
2022-10-26T03:57:45.010Z,10.98
2022-10-26T03:58:06.729Z,10.55
2022-10-26T03:58:28.866Z,10.32
2022-10-26T03:58:50.558Z,10.68
2022-10-26T03:59:12.714Z,10.63
2022-10-26T03:59:34.457Z,10.48
2022-10-26T03:59:56.173Z,10.75
2022-10-26T04:00:18.737Z,10.65
2022-10-26T04:00:40.522Z,11.43
2022-10-26T04:01:02.257Z,11.07
2022-10-26T04:01:24.113Z,10.73
2022-10-26T04:01:45.902Z,10.65
2022-10-26T04:02:07.705Z,10.82
2022-10-26T04:02:29.422Z,10.45
2022-10-26T04:02:55.530Z,10.35
2022-10-26T04:03:17.296Z,10.27
2022-10-26T04:03:39.034Z,10.98
2022-10-26T04:04:01.216Z,11.07
2022-10-26T04:04:22.996Z,11.20
2022-10-26T04:04:44.735Z,11.10
2022-10-26T04:05:07.259Z,10.90
2022-10-26T04:05:30.168Z,11.07
2022-10-26T04:05:51.884Z,11.07
2022-10-26T04:06:13.923Z,11.43
2022-10-26T04:06:35.741Z,11.45
2022-10-26T04:06:57.629Z,11.00
2022-10-26T04:07:19.845Z,11.15
2022-10-26T04:07:41.564Z,11.45
2022-10-26T04:08:03.485Z,10.60
2022-10-26T04:08:25.249Z,10.60
2022-10-26T04:08:47.356Z,11.20
2022-10-26T04:09:09.515Z,11.63
2022-10-26T04:09:31.225Z,10.80
2022-10-26T04:09:53.003Z,11.25
2022-10-26T04:10:14.806Z,10.95
2022-10-26T04:10:36.604Z,11.07
2022-10-26T04:11:00.993Z,11.00
2022-10-26T04:11:25.542Z,11.48
2022-10-26T04:11:47.319Z,12.13
2022-10-26T04:12:09.083Z,11.57
2022-10-26T04:12:30.857Z,11.10
2022-10-26T04:12:53.473Z,11.55
2022-10-26T04:13:15.637Z,11.75
2022-10-26T04:13:37.373Z,11.27
2022-10-26T04:14:02.200Z,11.23
2022-10-26T04:14:24.014Z,12.30
2022-10-26T04:14:45.724Z,11.48
2022-10-26T04:15:08.117Z,11.88
2022-10-26T04:15:31.272Z,11.57
2022-10-26T04:15:53.410Z,11.20
2022-10-26T04:16:17.329Z,11.32
2022-10-26T04:16:39.430Z,11.77
2022-10-26T04:17:01.231Z,11.60
2022-10-26T04:17:23.325Z,11.90
2022-10-26T04:17:45.113Z,12.13
2022-10-26T04:18:06.875Z,12.77
2022-10-26T04:18:28.639Z,12.35
2022-10-26T04:18:50.730Z,12.00
2022-10-26T04:19:12.439Z,11.80
2022-10-26T04:19:34.186Z,12.82
2022-10-26T04:19:55.894Z,12.80
2022-10-26T04:20:17.992Z,12.23
2022-10-26T04:20:42.183Z,11.90
2022-10-26T04:21:04.019Z,12.85
2022-10-26T04:21:25.785Z,12.48
2022-10-26T04:21:47.484Z,12.50
2022-10-26T04:22:09.639Z,12.48
2022-10-26T04:22:31.755Z,12.43
2022-10-26T04:23:00.968Z,12.57
2022-10-26T04:23:23.097Z,12.68
2022-10-26T04:23:44.863Z,12.85
2022-10-26T04:24:07.093Z,12.82
2022-10-26T04:24:31.851Z,12.82
2022-10-26T04:24:53.672Z,12.55
2022-10-26T04:25:15.511Z,12.20
2022-10-26T04:25:37.255Z,12.43
2022-10-26T04:25:59.166Z,12.15
2022-10-26T04:26:20.997Z,11.60
2022-10-26T04:26:42.745Z,12.15
2022-10-26T04:27:04.503Z,12.90
2022-10-26T04:27:26.214Z,13.07
2022-10-26T04:27:48.230Z,12.50
2022-10-26T04:28:11.303Z,12.60
2022-10-26T04:28:33.418Z,12.27
2022-10-26T04:28:55.606Z,12.48
2022-10-26T04:29:17.731Z,12.57
2022-10-26T04:29:39.861Z,12.75
2022-10-26T04:30:01.969Z,12.93
2022-10-26T04:30:24.701Z,13.03
2022-10-26T04:30:47.785Z,12.68
2022-10-26T04:31:09.891Z,12.68
2022-10-26T04:31:32.080Z,12.85
2022-10-26T04:31:54.234Z,12.50
2022-10-26T04:32:15.999Z,12.98
2022-10-26T04:32:37.691Z,12.75
2022-10-26T04:33:02.309Z,12.77
2022-10-26T04:33:24.418Z,12.35
2022-10-26T04:33:46.144Z,12.13
2022-10-26T04:34:08.006Z,12.75
2022-10-26T04:34:29.771Z,12.57
2022-10-26T04:34:54.282Z,12.77
2022-10-26T04:35:16.387Z,12.77
2022-10-26T04:35:38.621Z,12.55
2022-10-26T04:36:01.551Z,12.55
2022-10-26T04:36:23.682Z,12.73
2022-10-26T04:36:45.789Z,12.70
2022-10-26T04:37:07.518Z,12.68
2022-10-26T04:37:29.227Z,13.02
2022-10-26T04:37:51.086Z,12.73
2022-10-26T04:38:13.222Z,12.32
2022-10-26T04:38:35.360Z,12.90
2022-10-26T04:38:57.453Z,13.45
2022-10-26T04:39:19.248Z,13.00
2022-10-26T04:39:40.971Z,13.07
2022-10-26T04:40:02.906Z,12.95
2022-10-26T04:40:24.886Z,12.73
2022-10-26T04:40:47.009Z,12.35
2022-10-26T04:41:08.696Z,12.32
2022-10-26T04:41:30.405Z,13.18
2022-10-26T04:41:53.466Z,12.93
2022-10-26T04:42:15.635Z,13.00
2022-10-26T04:42:41.508Z,12.93
2022-10-26T04:43:03.306Z,13.52
2022-10-26T04:43:25.109Z,13.32
2022-10-26T04:43:47.227Z,13.38
2022-10-26T04:44:09.346Z,13.45
2022-10-26T04:44:31.082Z,13.88
2022-10-26T04:44:52.829Z,13.27
2022-10-26T04:45:16.486Z,12.90
2022-10-26T04:45:38.234Z,13.20
2022-10-26T04:46:00.327Z,13.57
2022-10-26T04:46:22.486Z,13.50
2022-10-26T04:46:44.622Z,13.80
2022-10-26T04:47:06.325Z,13.63
2022-10-26T04:47:28.027Z,14.20
2022-10-26T04:48:10.743Z,14.32
2022-10-26T04:48:32.625Z,13.25
2022-10-26T04:48:54.325Z,13.98
2022-10-26T04:49:16.488Z,15.15
2022-10-26T04:49:38.600Z,18.77
2022-10-26T04:50:00.731Z,20.83
2022-10-26T04:50:23.794Z,20.38
2022-10-26T04:50:48.352Z,19.90
2022-10-26T04:51:10.484Z,19.20
2022-10-26T04:51:32.232Z,18.27
2022-10-26T04:51:54.010Z,19.25
2022-10-26T04:52:16.103Z,18.80
2022-10-26T04:52:38.212Z,17.30
2022-10-26T04:53:00.394Z,17.13
2022-10-26T04:53:22.093Z,16.63
2022-10-26T04:53:43.842Z,16.08
2022-10-26T04:54:05.748Z,16.05
2022-10-26T04:54:27.841Z,15.63
2022-10-26T04:54:49.933Z,14.68
2022-10-26T04:55:12.034Z,16.00
2022-10-26T04:55:34.411Z,15.35
2022-10-26T04:56:00.189Z,15.75
2022-10-26T04:56:22.427Z,15.85
2022-10-26T04:56:44.543Z,15.85
2022-10-26T04:57:06.735Z,16.33
2022-10-26T04:57:28.913Z,16.65
2022-10-26T04:57:50.950Z,17.25
2022-10-26T04:58:13.198Z,17.55
2022-10-26T04:58:34.918Z,16.92
2022-10-26T04:58:57.034Z,16.50
2022-10-26T04:59:18.767Z,16.48
2022-10-26T04:59:40.905Z,17.92
2022-10-26T05:00:04.535Z,19.20
2022-10-26T05:00:27.029Z,20.25
2022-10-26T05:00:49.159Z,21.77
2022-10-26T05:01:11.355Z,20.88
2022-10-26T05:01:33.638Z,19.48
2022-10-26T05:01:55.934Z,18.58
2022-10-26T05:02:17.841Z,19.23
2022-10-26T05:02:40.344Z,18.80
2022-10-26T05:03:06.821Z,18.50
2022-10-26T05:03:30.099Z,18.83
2022-10-26T05:03:53.134Z,22.70
2022-10-26T05:04:14.923Z,25.85
2022-10-26T05:04:36.701Z,27.42
2022-10-26T05:04:58.488Z,26.42
2022-10-26T05:05:20.223Z,26.20
2022-10-26T05:05:42.372Z,24.45
2022-10-26T05:06:04.566Z,24.38
2022-10-26T05:06:26.299Z,24.08
2022-10-26T05:06:48.046Z,21.98
2022-10-26T05:07:09.823Z,20.63
2022-10-26T05:07:31.953Z,20.30
2022-10-26T05:07:55.907Z,18.48
2022-10-26T05:08:18.075Z,17.65
2022-10-26T05:08:39.840Z,17.80
2022-10-26T05:09:02.568Z,17.30
2022-10-26T05:09:24.447Z,17.42
2022-10-26T05:09:46.740Z,17.17
2022-10-26T05:10:09.177Z,18.58
2022-10-26T05:10:31.381Z,17.80
2022-10-26T05:10:54.802Z,16.88
2022-10-26T05:11:16.979Z,17.40
2022-10-26T05:11:39.091Z,17.40
2022-10-26T05:12:00.786Z,17.58
2022-10-26T05:12:22.601Z,17.20
2022-10-26T05:12:50.922Z,16.98
2022-10-26T05:13:12.645Z,17.40
2022-10-26T05:13:34.739Z,17.23
2022-10-26T05:13:56.475Z,16.42
2022-10-26T05:14:18.625Z,17.55
2022-10-26T05:14:40.335Z,17.55
2022-10-26T05:15:05.045Z,17.25
2022-10-26T05:15:30.472Z,17.30
2022-10-26T05:15:55.602Z,17.75
2022-10-26T05:16:17.701Z,17.50
2022-10-26T05:16:39.843Z,17.20
2022-10-26T05:17:01.955Z,17.52
2022-10-26T05:17:23.673Z,17.85
2022-10-26T05:17:45.426Z,17.88
2022-10-26T05:18:09.022Z,17.33
2022-10-26T05:18:30.847Z,18.00
2022-10-26T05:18:52.563Z,18.50
2022-10-26T05:19:14.312Z,18.88
2022-10-26T05:19:36.339Z,19.50
2022-10-26T05:20:00.383Z,22.17
2022-10-26T05:20:28.875Z,24.02
2022-10-26T05:20:53.558Z,22.75
2022-10-26T05:21:19.538Z,22.48
2022-10-26T05:21:41.330Z,22.23